createdAt,value
2022-10-31T00:01:39.700Z,11.99
2022-10-31T00:04:08.715Z,12.03
2022-10-31T00:06:39.447Z,12.05
2022-10-31T00:09:08.606Z,12.07
2022-10-31T00:11:37.921Z,12.06
2022-10-31T00:14:07.176Z,12.04
2022-10-31T00:16:36.479Z,12.06
2022-10-31T00:19:06.041Z,11.98
2022-10-31T00:21:35.805Z,12.00
2022-10-31T00:24:06.836Z,11.98
2022-10-31T00:26:36.268Z,12.00
2022-10-31T00:29:05.329Z,11.94
2022-10-31T00:31:34.587Z,11.76
2022-10-31T00:34:04.914Z,11.72
2022-10-31T00:36:34.202Z,11.72
2022-10-31T00:39:03.212Z,11.70
2022-10-31T00:41:34.020Z,11.64
2022-10-31T00:44:02.983Z,11.63
2022-10-31T00:46:32.293Z,11.61
2022-10-31T00:49:01.409Z,11.59
2022-10-31T00:51:30.706Z,11.60
2022-10-31T00:53:59.626Z,11.70
2022-10-31T00:56:28.916Z,11.63
2022-10-31T00:58:59.506Z,11.49
2022-10-31T01:01:28.992Z,11.54
2022-10-31T01:03:58.045Z,11.61
2022-10-31T01:06:27.454Z,11.63
2022-10-31T01:08:56.383Z,11.62
2022-10-31T01:11:25.776Z,11.43
2022-10-31T01:13:55.540Z,11.32
2022-10-31T01:16:26.819Z,11.39
2022-10-31T01:18:55.821Z,11.43
2022-10-31T01:21:25.820Z,11.45
2022-10-31T01:23:55.476Z,11.46
2022-10-31T01:26:25.182Z,11.47
2022-10-31T01:28:54.699Z,11.43
2022-10-31T01:31:25.137Z,11.38
2022-10-31T01:33:55.787Z,11.37
2022-10-31T01:36:25.698Z,11.37
2022-10-31T01:38:55.139Z,11.36
2022-10-31T01:41:25.035Z,11.36
2022-10-31T01:43:54.618Z,11.35
2022-10-31T01:46:24.891Z,11.29
2022-10-31T01:48:55.527Z,11.22
2022-10-31T01:51:26.276Z,11.35
2022-10-31T01:53:55.348Z,11.40
2022-10-31T01:56:24.682Z,11.41
2022-10-31T01:58:53.738Z,11.40
2022-10-31T02:01:23.065Z,11.36
2022-10-31T02:03:52.184Z,11.43
2022-10-31T02:06:24.055Z,11.44
2022-10-31T02:08:53.104Z,11.39
2022-10-31T02:11:22.391Z,11.44
2022-10-31T02:13:51.459Z,11.48
2022-10-31T02:16:20.748Z,11.40
2022-10-31T02:18:51.334Z,11.37
2022-10-31T02:21:21.980Z,11.45
2022-10-31T02:24:11.670Z,11.47
2022-10-31T02:27:00.267Z,11.56
2022-10-31T02:29:40.092Z,11.58
2022-10-31T02:32:11.623Z,11.61
2022-10-31T02:34:42.317Z,11.53
2022-10-31T02:37:13.278Z,11.49
2022-10-31T02:39:43.506Z,11.49
2022-10-31T02:42:15.865Z,11.52
2022-10-31T02:44:46.023Z,11.48
2022-10-31T02:47:17.460Z,11.47
2022-10-31T02:49:48.079Z,11.49
2022-10-31T02:52:20.045Z,11.45
2022-10-31T02:54:49.522Z,11.45
2022-10-31T02:57:19.905Z,11.45
2022-10-31T02:59:49.502Z,11.48
2022-10-31T03:02:22.815Z,11.43
2022-10-31T03:04:58.362Z,11.44
2022-10-31T03:07:29.429Z,11.42
2022-10-31T03:10:01.553Z,11.41
2022-10-31T03:12:34.380Z,11.41
2022-10-31T03:15:06.935Z,11.36
2022-10-31T03:17:38.434Z,11.38
2022-10-31T03:20:08.700Z,11.36
2022-10-31T03:22:38.072Z,11.32
2022-10-31T03:25:07.292Z,11.35
2022-10-31T03:27:37.207Z,11.29
2022-10-31T03:30:08.906Z,11.30
2022-10-31T03:32:41.033Z,11.31
2022-10-31T03:35:10.675Z,11.33
2022-10-31T03:37:40.282Z,11.30
2022-10-31T03:40:09.656Z,11.31
2022-10-31T03:42:39.642Z,11.31
2022-10-31T03:45:09.132Z,11.35
2022-10-31T03:47:39.806Z,11.30
2022-10-31T03:50:09.422Z,11.33
2022-10-31T03:52:39.899Z,11.35
2022-10-31T03:55:10.276Z,11.34
2022-10-31T03:57:40.946Z,11.34
2022-10-31T04:00:10.787Z,11.35
2022-10-31T04:02:42.275Z,11.40
2022-10-31T04:05:11.514Z,11.38
2022-10-31T04:07:41.675Z,11.37
2022-10-31T04:10:11.998Z,11.41
2022-10-31T04:12:41.354Z,11.41
2022-10-31T04:15:10.785Z,11.44
2022-10-31T04:17:41.723Z,11.44
2022-10-31T04:20:11.042Z,11.47
2022-10-31T04:22:40.346Z,11.47
2022-10-31T04:25:09.918Z,11.46
2022-10-31T04:27:39.282Z,11.48
2022-10-31T04:30:08.970Z,11.49
2022-10-31T04:32:38.277Z,11.49
2022-10-31T04:35:09.341Z,11.53
2022-10-31T04:37:38.666Z,11.52
2022-10-31T04:40:08.064Z,11.52
2022-10-31T04:42:37.311Z,11.54
2022-10-31T04:45:06.863Z,11.58
2022-10-31T04:47:36.270Z,11.60
2022-10-31T04:50:05.765Z,11.59
2022-10-31T04:52:40.830Z,11.60
2022-10-31T04:55:10.316Z,11.60
2022-10-31T04:57:42.854Z,11.62
2022-10-31T05:00:12.630Z,11.65
2022-10-31T05:02:45.505Z,11.68
2022-10-31T05:05:14.583Z,11.67
2022-10-31T05:07:46.217Z,11.71
2022-10-31T05:10:15.776Z,11.72
2022-10-31T05:12:48.156Z,11.75
2022-10-31T05:15:19.783Z,11.80
2022-10-31T05:17:49.187Z,11.63
2022-10-31T05:20:18.809Z,11.67
2022-10-31T05:22:51.119Z,11.48
2022-10-31T05:25:20.549Z,11.49
2022-10-31T05:27:50.210Z,11.20
2022-10-31T05:30:19.977Z,11.20
2022-10-31T05:32:50.011Z,11.00
2022-10-31T05:35:24.124Z,11.07
2022-10-31T05:37:54.839Z,11.34
2022-10-31T05:40:23.966Z,11.22
2022-10-31T05:42:53.538Z,11.24
2022-10-31T05:45:22.750Z,11.37
2022-10-31T05:47:52.539Z,11.65
2022-10-31T05:50:21.724Z,11.39
2022-10-31T05:52:57.542Z,11.58
2022-10-31T05:55:26.778Z,11.80
2022-10-31T05:57:56.146Z,11.93
2022-10-31T06:00:27.511Z,11.94
2022-10-31T06:03:00.260Z,11.97
2022-10-31T06:05:29.771Z,11.93
2022-10-31T06:08:00.826Z,11.41
2022-10-31T06:10:30.276Z,11.43
2022-10-31T06:12:59.505Z,11.88
2022-10-31T06:15:28.553Z,12.06
2022-10-31T06:18:01.782Z,11.92
2022-10-31T06:20:31.252Z,11.30
2022-10-31T06:23:02.597Z,11.23
2022-10-31T06:25:32.061Z,11.78
2022-10-31T06:28:01.428Z,12.07
2022-10-31T06:30:30.460Z,12.17
2022-10-31T06:33:03.819Z,12.23
2022-10-31T06:35:32.956Z,12.28
2022-10-31T06:38:04.082Z,12.28
2022-10-31T06:40:33.615Z,12.34
2022-10-31T06:43:13.212Z,12.40
2022-10-31T06:45:42.698Z,12.45
2022-10-31T06:48:17.054Z,12.49
2022-10-31T06:50:46.626Z,12.53
2022-10-31T06:53:17.333Z,12.66
2022-10-31T06:55:46.396Z,12.70
2022-10-31T06:58:15.734Z,12.53
2022-10-31T07:00:44.882Z,12.59
2022-10-31T07:03:14.712Z,12.67
2022-10-31T07:05:43.919Z,12.77
2022-10-31T07:08:13.875Z,12.61
2022-10-31T07:10:44.587Z,12.84
2022-10-31T07:13:14.485Z,12.88
2022-10-31T07:15:44.380Z,12.95
2022-10-31T07:18:13.931Z,12.97
2022-10-31T07:20:42.915Z,13.00
2022-10-31T07:23:12.814Z,13.05
2022-10-31T07:25:43.777Z,13.09
2022-10-31T07:28:14.608Z,13.11
2022-10-31T07:30:43.888Z,13.18
2022-10-31T07:33:13.387Z,13.21
2022-10-31T07:35:42.385Z,13.23
2022-10-31T07:38:11.982Z,13.30
2022-10-31T07:40:40.906Z,13.33
2022-10-31T07:43:14.455Z,13.36
2022-10-31T07:45:47.820Z,13.42
2022-10-31T07:51:00.250Z,13.50
2022-10-31T07:53:29.753Z,13.55
2022-10-31T07:55:58.828Z,13.59
2022-10-31T07:58:28.304Z,13.65
2022-10-31T08:00:59.974Z,13.65
2022-10-31T08:03:29.625Z,13.71
2022-10-31T08:05:59.535Z,13.73
2022-10-31T08:09:03.928Z,13.82
2022-10-31T08:11:33.225Z,13.84
2022-10-31T08:14:02.852Z,13.89
2022-10-31T08:16:36.417Z,13.90
2022-10-31T08:19:12.622Z,13.99
2022-10-31T08:21:41.870Z,13.98
2022-10-31T08:24:11.719Z,14.04
2022-10-31T08:26:50.587Z,14.10
2022-10-31T08:29:20.170Z,14.12
2022-10-31T08:31:50.750Z,14.18
2022-10-31T08:34:22.682Z,14.20
2022-10-31T08:36:51.737Z,14.30
2022-10-31T08:39:21.034Z,14.32
2022-10-31T08:41:50.059Z,14.33
2022-10-31T08:44:19.574Z,14.38
2022-10-31T08:46:50.280Z,14.42
2022-10-31T08:49:20.785Z,14.48
2022-10-31T08:51:50.045Z,14.48
2022-10-31T08:54:19.607Z,14.51
2022-10-31T08:56:48.917Z,14.58
2022-10-31T08:59:18.515Z,14.66
2022-10-31T09:01:47.836Z,14.71
2022-10-31T09:04:19.993Z,14.74
2022-10-31T09:09:38.633Z,14.81
2022-10-31T09:12:07.850Z,14.86
2022-10-31T09:14:37.344Z,14.88
2022-10-31T09:17:09.103Z,14.93
2022-10-31T09:19:52.221Z,14.94
2022-10-31T09:22:42.392Z,14.98
2022-10-31T09:36:35.672Z,15.22
2022-10-31T09:40:15.487Z,15.26
2022-10-31T10:00:40.270Z,15.45
2022-10-31T10:06:19.955Z,15.45
2022-10-31T10:09:09.426Z,15.55
2022-10-31T10:11:49.509Z,15.59
2022-10-31T10:14:27.828Z,15.64
2022-10-31T10:17:10.328Z,15.50
2022-10-31T10:20:03.615Z,15.60
2022-10-31T10:22:37.506Z,15.66
2022-10-31T10:25:11.776Z,15.70
2022-10-31T10:27:47.114Z,15.67
2022-10-31T10:30:17.069Z,15.72
2022-10-31T10:32:55.234Z,15.73
2022-10-31T10:35:30.507Z,15.73
2022-10-31T10:38:05.987Z,15.67
2022-10-31T10:40:35.421Z,15.77
2022-10-31T10:43:27.254Z,15.79
2022-10-31T10:46:19.711Z,15.81
2022-10-31T10:48:52.086Z,15.81
2022-10-31T10:51:39.022Z,15.85
2022-10-31T10:54:17.745Z,15.89
2022-10-31T10:56:53.316Z,15.86
2022-10-31T10:59:23.126Z,15.83
2022-10-31T11:01:55.343Z,15.57
2022-10-31T11:04:29.644Z,15.71
2022-10-31T11:07:06.982Z,15.89
2022-10-31T11:09:36.680Z,15.92
2022-10-31T11:12:08.493Z,15.91
2022-10-31T11:14:38.540Z,15.96
2022-10-31T11:17:12.020Z,15.97
2022-10-31T11:19:42.782Z,15.97
2022-10-31T11:22:17.454Z,16.03
2022-10-31T11:24:48.033Z,16.06
2022-10-31T11:27:17.874Z,16.09
2022-10-31T11:29:47.231Z,16.10
2022-10-31T11:32:20.591Z,16.14
2022-10-31T11:34:52.596Z,16.19
2022-10-31T11:37:22.511Z,15.79
2022-10-31T11:39:54.540Z,16.04
2022-10-31T11:42:24.781Z,16.13
2022-10-31T11:44:54.127Z,16.17
2022-10-31T11:47:26.739Z,16.22
2022-10-31T11:49:57.390Z,16.14
2022-10-31T11:52:29.127Z,16.13
2022-10-31T11:54:59.133Z,16.23
2022-10-31T11:57:29.053Z,16.16
2022-10-31T11:59:59.054Z,16.10
2022-10-31T12:02:28.675Z,16.19
2022-10-31T12:05:02.515Z,16.22
2022-10-31T12:07:31.600Z,16.25
2022-10-31T12:10:00.947Z,16.18
2022-10-31T12:12:44.559Z,16.21
2022-10-31T12:15:27.849Z,16.18
2022-10-31T12:20:35.987Z,15.95
2022-10-31T12:23:05.823Z,16.15
2022-10-31T12:25:38.790Z,15.66
2022-10-31T12:28:22.366Z,15.69
2022-10-31T12:30:57.989Z,15.29
2022-10-31T12:33:34.132Z,15.54
2022-10-31T12:36:14.255Z,15.60
2022-10-31T12:38:48.547Z,15.41
2022-10-31T12:41:22.216Z,15.78
2022-10-31T12:43:52.293Z,15.35
2022-10-31T12:46:24.873Z,15.80
2022-10-31T12:49:17.827Z,15.53
2022-10-31T12:51:50.756Z,15.46
2022-10-31T12:54:25.105Z,15.83
2022-10-31T12:56:56.121Z,15.92
2022-10-31T12:59:28.077Z,16.04
2022-10-31T13:01:58.654Z,15.95
2022-10-31T13:04:33.038Z,15.99
2022-10-31T13:07:04.976Z,16.14
2022-10-31T13:09:36.218Z,15.98
2022-10-31T13:12:10.082Z,16.05
2022-10-31T13:14:40.709Z,16.02
2022-10-31T13:17:11.232Z,16.14
2022-10-31T13:19:41.183Z,16.14
2022-10-31T13:22:12.858Z,16.08
2022-10-31T13:24:43.014Z,15.91
2022-10-31T13:27:14.537Z,16.10
2022-10-31T13:29:45.298Z,16.14
2022-10-31T13:32:14.928Z,16.18
2022-10-31T13:34:44.806Z,16.19
2022-10-31T13:37:17.749Z,16.23
2022-10-31T13:40:05.764Z,16.23
2022-10-31T13:42:42.767Z,16.21
2022-10-31T13:45:15.716Z,16.14
2022-10-31T13:47:45.185Z,15.81
2022-10-31T13:50:21.741Z,16.08
2022-10-31T13:52:52.518Z,16.14
2022-10-31T13:55:37.736Z,16.21
2022-10-31T13:58:07.330Z,16.09
2022-10-31T14:00:37.491Z,16.18
2022-10-31T14:03:06.910Z,15.97
2022-10-31T14:05:36.736Z,15.99
2022-10-31T14:08:08.136Z,15.96
2022-10-31T14:10:38.027Z,16.17
2022-10-31T14:13:08.477Z,16.20
2022-10-31T14:15:39.012Z,16.17
2022-10-31T14:18:08.973Z,16.20
2022-10-31T14:20:41.727Z,16.21
2022-10-31T14:23:29.666Z,16.14
2022-10-31T14:26:12.583Z,15.39
2022-10-31T14:28:41.823Z,15.28
2022-10-31T14:31:23.887Z,15.33
2022-10-31T14:33:53.121Z,15.52
2022-10-31T14:36:24.298Z,15.43
2022-10-31T14:38:57.100Z,15.82
2022-10-31T14:41:37.616Z,15.74
2022-10-31T14:44:27.440Z,15.30
2022-10-31T14:46:57.547Z,15.74
2022-10-31T14:49:43.731Z,15.93
2022-10-31T14:52:13.121Z,15.56
2022-10-31T14:54:43.575Z,15.83
2022-10-31T14:57:17.079Z,15.84
2022-10-31T14:59:48.137Z,15.76
2022-10-31T15:02:24.909Z,15.85
2022-10-31T15:04:54.368Z,15.92
2022-10-31T15:07:25.040Z,15.99
2022-10-31T15:09:57.913Z,15.88
2022-10-31T15:12:41.805Z,15.84
2022-10-31T15:15:13.539Z,15.74
2022-10-31T15:17:50.702Z,15.86
2022-10-31T15:20:24.184Z,15.86
2022-10-31T15:22:53.344Z,15.85
2022-10-31T15:25:23.334Z,15.90
2022-10-31T15:27:56.215Z,15.92
2022-10-31T15:30:30.887Z,15.66
2022-10-31T15:33:11.402Z,15.80
2022-10-31T15:35:49.364Z,15.84
2022-10-31T15:38:31.089Z,15.85
2022-10-31T15:41:06.413Z,15.85
2022-10-31T15:44:45.527Z,15.86
2022-10-31T15:46:59.662Z,15.63
2022-10-31T15:49:30.350Z,15.75
2022-10-31T15:52:03.870Z,15.81
2022-10-31T15:54:33.432Z,15.79
2022-10-31T15:57:02.709Z,15.82
2022-10-31T15:59:33.244Z,15.84
2022-10-31T16:02:03.914Z,15.82
2022-10-31T16:04:33.252Z,15.81
2022-10-31T16:07:03.672Z,15.92
2022-10-31T16:09:32.797Z,15.83
2022-10-31T16:12:13.004Z,15.83
2022-10-31T16:14:43.724Z,15.85
2022-10-31T16:17:14.014Z,15.85
2022-10-31T16:19:48.025Z,15.85
2022-10-31T16:22:24.719Z,15.84
2022-10-31T16:24:54.771Z,15.84
2022-10-31T16:27:28.048Z,15.87
2022-10-31T16:30:01.438Z,15.86
2022-10-31T16:32:34.685Z,15.84
2022-10-31T16:35:07.452Z,15.88
2022-10-31T16:37:39.228Z,15.86
2022-10-31T16:40:08.944Z,15.86
2022-10-31T16:42:38.212Z,15.89
2022-10-31T16:45:09.211Z,15.92
2022-10-31T16:47:38.485Z,15.93
2022-10-31T16:50:07.804Z,15.95
2022-10-31T16:52:38.498Z,15.95
2022-10-31T16:55:22.727Z,15.95
2022-10-31T16:57:52.808Z,15.94
2022-10-31T17:00:23.899Z,15.94
2022-10-31T17:02:54.146Z,15.96
2022-10-31T17:05:30.181Z,15.95
2022-10-31T17:07:59.646Z,15.96
2022-10-31T17:10:28.953Z,15.99
2022-10-31T17:13:00.302Z,15.97
2022-10-31T17:15:30.936Z,15.96
2022-10-31T17:18:00.637Z,15.95
2022-10-31T17:20:30.591Z,15.93
2022-10-31T17:23:00.616Z,15.97
2022-10-31T17:25:32.043Z,15.99
2022-10-31T17:28:01.417Z,15.99
2022-10-31T17:30:32.505Z,15.98
2022-10-31T17:33:02.455Z,16.02
2022-10-31T17:35:31.807Z,16.03
2022-10-31T17:38:01.072Z,15.99
2022-10-31T17:40:30.166Z,16.01
2022-10-31T17:42:59.957Z,15.99
2022-10-31T17:45:29.188Z,15.99
2022-10-31T17:48:00.019Z,16.01
2022-10-31T17:50:29.077Z,15.98
2022-10-31T17:52:59.436Z,15.99
2022-10-31T17:55:32.847Z,16.02
2022-10-31T17:58:06.415Z,16.02
2022-10-31T18:00:35.589Z,16.03
2022-10-31T18:03:06.837Z,16.02
2022-10-31T18:05:35.847Z,16.01
2022-10-31T18:08:06.014Z,15.96
2022-10-31T18:10:35.107Z,15.99
2022-10-31T18:13:04.899Z,15.97
2022-10-31T18:15:34.060Z,15.95
2022-10-31T18:18:04.268Z,15.95
2022-10-31T18:20:34.914Z,15.94
2022-10-31T18:23:04.615Z,15.96
2022-10-31T18:25:33.908Z,16.07
2022-10-31T18:28:03.621Z,16.02
2022-10-31T18:30:32.694Z,15.84
2022-10-31T18:33:02.234Z,15.89
2022-10-31T18:35:31.266Z,15.88
2022-10-31T18:38:03.285Z,15.97
2022-10-31T18:40:33.004Z,15.99
2022-10-31T18:43:05.709Z,15.94
2022-10-31T18:45:46.537Z,15.92
2022-10-31T18:48:17.420Z,15.90
2022-10-31T18:50:47.123Z,15.77
2022-10-31T18:53:18.137Z,15.65
2022-10-31T18:55:49.949Z,15.84
2022-10-31T18:58:19.470Z,15.88
2022-10-31T19:00:48.716Z,15.83
2022-10-31T19:03:21.923Z,15.87
2022-10-31T19:05:56.825Z,15.92
2022-10-31T19:10:57.640Z,15.84
2022-10-31T19:13:27.040Z,15.77
2022-10-31T19:15:56.358Z,15.78
2022-10-31T19:18:25.695Z,15.78
2022-10-31T19:20:56.017Z,15.79
2022-10-31T19:23:26.860Z,15.77
2022-10-31T19:26:00.678Z,15.78
2022-10-31T19:28:30.760Z,15.76
2022-10-31T19:30:59.914Z,15.78
2022-10-31T19:33:35.016Z,15.79
2022-10-31T19:36:08.357Z,15.80
2022-10-31T19:38:41.674Z,15.80
2022-10-31T19:41:12.568Z,15.80
2022-10-31T19:43:41.975Z,15.81
2022-10-31T19:46:17.639Z,15.83
2022-10-31T19:48:51.941Z,15.81
2022-10-31T19:51:23.506Z,15.81
2022-10-31T19:53:52.969Z,15.82
2022-10-31T19:56:25.668Z,15.83
2022-10-31T19:58:54.999Z,15.82
2022-10-31T20:01:25.704Z,15.84
2022-10-31T20:03:55.100Z,15.87
2022-10-31T20:06:24.836Z,15.85
2022-10-31T20:08:56.938Z,15.84
2022-10-31T20:12:55.472Z,15.85
2022-10-31T20:46:18.727Z,15.86
2022-10-31T20:54:23.932Z,15.87
2022-10-31T20:56:53.367Z,15.88
2022-10-31T20:59:23.882Z,15.88
2022-10-31T21:01:53.307Z,15.88
2022-10-31T21:04:22.490Z,15.89
2022-10-31T21:06:51.752Z,15.89
2022-10-31T21:09:20.799Z,15.86
2022-10-31T21:11:50.752Z,15.88
2022-10-31T21:14:19.916Z,15.88
2022-10-31T21:16:50.676Z,15.89
2022-10-31T21:19:21.071Z,15.86
2022-10-31T21:21:50.416Z,15.84
2022-10-31T21:24:20.550Z,15.84
2022-10-31T21:26:51.055Z,15.86
2022-10-31T21:29:20.216Z,15.87
2022-10-31T21:31:51.130Z,15.86
2022-10-31T21:34:20.088Z,15.85
2022-10-31T21:36:49.463Z,15.85
2022-10-31T21:39:18.557Z,15.84
2022-10-31T21:41:47.766Z,15.82
2022-10-31T21:44:16.729Z,15.86
2022-10-31T21:46:48.187Z,15.86
2022-10-31T21:49:18.591Z,15.86
2022-10-31T21:51:47.874Z,15.84
2022-10-31T21:54:28.015Z,15.86
2022-10-31T21:56:57.407Z,15.84
2022-10-31T21:59:26.736Z,15.84
2022-10-31T22:01:58.340Z,15.82
2022-10-31T22:04:29.087Z,15.80
2022-10-31T22:06:58.526Z,15.83
2022-10-31T22:09:27.598Z,15.85
2022-10-31T22:11:56.960Z,15.84
2022-10-31T22:14:26.015Z,15.80
2022-10-31T22:16:55.443Z,15.83
2022-10-31T22:19:24.497Z,15.83
2022-10-31T22:21:55.280Z,15.84
2022-10-31T22:24:24.327Z,15.80
2022-10-31T22:26:53.743Z,15.80
2022-10-31T22:29:23.161Z,15.81
2022-10-31T22:31:57.326Z,15.77
2022-10-31T22:34:29.675Z,15.73
2022-10-31T22:37:02.188Z,15.75
2022-10-31T22:39:31.312Z,15.72
2022-10-31T22:42:00.704Z,15.74
2022-10-31T22:44:29.692Z,15.70
2022-10-31T22:46:59.100Z,15.80
2022-10-31T22:49:28.135Z,15.78
2022-10-31T22:51:59.915Z,15.83
2022-10-31T22:54:31.311Z,15.84
2022-10-31T22:57:00.647Z,15.81
2022-10-31T22:59:29.773Z,15.57
2022-10-31T23:01:59.280Z,15.67
2022-10-31T23:04:28.456Z,15.64
2022-10-31T23:06:57.822Z,15.62
2022-10-31T23:09:26.839Z,15.62
2022-10-31T23:12:17.587Z,15.37
2022-10-31T23:14:46.654Z,15.53
2022-10-31T23:17:18.790Z,15.52
2022-10-31T23:19:47.754Z,15.53
2022-10-31T23:22:17.146Z,15.40
2022-10-31T23:24:46.812Z,15.18
2022-10-31T23:27:17.026Z,15.28
2022-10-31T23:29:46.505Z,15.43
2022-10-31T23:32:18.297Z,15.51
2022-10-31T23:34:47.781Z,15.56
2022-10-31T23:37:17.478Z,15.52
2022-10-31T23:39:46.772Z,15.45
2022-10-31T23:42:17.274Z,15.36
2022-10-31T23:44:46.768Z,15.38
2022-10-31T23:47:15.912Z,15.42
2022-10-31T23:49:45.296Z,15.43
2022-10-31T23:52:14.506Z,15.41
2022-10-31T23:54:43.856Z,15.39
2022-10-31T23:57:12.905Z,15.43
2022-10-31T23:59:43.510Z,15.29
